createdAt,value
2019-02-14T17:06:43.982Z,1029.16
2019-02-14T17:07:43.838Z,1029.10
2019-02-14T17:08:43.824Z,1029.10
2019-02-14T17:11:59.719Z,1029.19
2019-02-14T17:12:59.690Z,1029.15
2019-02-14T18:23:24.757Z,1029.48
2019-02-14T18:24:19.748Z,1029.44
2019-02-14T18:25:19.525Z,1029.46
2019-02-14T18:26:19.493Z,1029.44
2019-02-14T18:27:19.505Z,1029.45
2019-02-14T18:28:19.493Z,1029.46
2019-02-14T18:29:19.463Z,1029.53
2019-02-14T18:30:19.471Z,1029.47
2019-02-14T18:31:19.438Z,1029.49
2019-02-14T18:32:19.432Z,1029.45
2019-02-14T18:33:19.457Z,1029.45
2019-02-14T18:53:23.377Z,1029.56
2019-02-14T18:54:23.364Z,1029.54
2019-02-14T18:55:24.048Z,1029.49
2019-02-14T18:56:23.292Z,1029.58
2019-02-14T18:57:23.279Z,1029.51
2019-02-14T18:58:26.373Z,1029.54
2019-02-14T18:59:23.293Z,1029.53
2019-02-14T19:00:23.981Z,1029.48
2019-02-14T19:01:23.240Z,1029.54
2019-02-14T19:02:23.241Z,1029.50
2019-02-14T19:03:23.216Z,1029.54
2019-02-14T19:04:23.212Z,1029.54
2019-02-14T19:05:23.218Z,1029.56
2019-02-14T19:06:23.206Z,1029.64
2019-02-14T19:07:23.173Z,1029.58
2019-02-14T19:08:23.165Z,1029.59
2019-02-14T19:09:23.154Z,1029.57
2019-02-14T19:10:23.165Z,1029.61
2019-02-14T19:11:23.131Z,1029.58
2019-02-14T19:12:23.121Z,1029.63
2019-02-14T19:13:23.102Z,1029.62
2019-02-14T19:14:23.093Z,1029.55
2019-02-14T19:15:23.082Z,1029.54
2019-02-14T19:16:23.092Z,1029.58
2019-02-14T19:17:23.065Z,1029.64
2019-02-14T19:18:23.051Z,1029.60
2019-02-14T19:19:23.043Z,1029.62
2019-02-14T19:20:23.031Z,1029.68
2019-02-14T19:21:23.037Z,1029.67
2019-02-14T19:22:23.007Z,1029.68
2019-02-14T19:23:24.370Z,1029.66
2019-02-14T19:24:22.997Z,1029.67
2019-02-14T19:25:22.973Z,1029.74
2019-02-14T19:26:22.984Z,1029.61
2019-02-14T19:27:22.946Z,1029.66
2019-02-14T19:28:22.944Z,1029.66
2019-02-14T19:29:22.932Z,1029.66
2019-02-14T19:30:22.917Z,1029.64
2019-02-14T19:31:22.928Z,1029.69
2019-02-14T19:32:22.895Z,1029.67
2019-02-14T19:33:22.885Z,1029.65
2019-02-14T19:34:22.873Z,1029.63
2019-02-14T19:35:23.503Z,1029.66
2019-02-14T19:36:22.883Z,1029.70
2019-02-14T19:37:22.846Z,1029.66
2019-02-14T19:38:22.833Z,1029.61
2019-02-14T19:39:22.818Z,1029.66
2019-02-14T19:40:22.810Z,1029.66
2019-02-14T19:41:25.433Z,1029.59
2019-02-14T19:42:22.846Z,1029.65
2019-02-14T19:43:22.776Z,1029.63
2019-02-14T19:44:22.760Z,1029.56
2019-02-14T19:45:22.750Z,1029.58
